Terminal Aerodrome Forecast
Issued by NWS Dodge City, KS

Home | Current Version | Previous Version | Text Only | Print | Product List | Glossary Off
Versions: 1 2 3 4 5 6 7 8 9 10 11 12 13 14 15

000
FTUS43 KDDC 311231 AAA
TAFDDC
TAF AMD
KDDC 311231Z 3113/0112 01010KT P6SM BKN009
     FM311500 05009KT P6SM SCT015
     FM311800 10012KT P6SM SKC=

USA.gov is the U.S. government's official web portal to all federal, state and local government web resources and services.